Time;durP1;ratioP1;P1;durP2;ratioP2;P2;SDS_P1;SDS_P2;PMS_P1;PMS_P2;Temp;Humidity;BMP_temperature;BMP_pressure;BME280_temperature;BME280_humidity;BME280_pressure;Samples;Min_cycle;Max_cycle;Signal;HPM_P1;HPM_P2
2022/08/10 00:01:11;;;;;;;;;;;;;;;24.12;35.80;100964.25;5434784;32;34990;-66
2022/08/10 00:04:14;;;;;;;;;;;;;;;23.83;36.10;100955.19;5429567;32;35466;-65
2022/08/10 00:07:22;;;;;;;;;;;;;;;23.23;37.26;100958.38;5421858;32;34222;-68
2022/08/10 00:10:24;;;;;;;;;;;;;;;23.47;36.64;100954.63;5439708;32;33961;-67
2022/08/10 00:13:26;;;;;;;;;;;;;;;23.76;36.53;100955.72;5421206;32;34615;-69
2022/08/10 00:16:27;;;;;;;;;;;;;;;23.47;37.16;100952.78;5415634;32;33548;-66
2022/08/10 00:19:29;;;;;;;;;;;;;;;23.27;37.20;100947.41;5417460;32;35592;-67
2022/08/10 00:22:51;;;;;;;;;;;;;;;24.08;35.82;100951.22;5423227;32;34880;-67
2022/08/10 00:25:58;;;;;;;;;;;;;;;23.78;36.52;100951.06;5447795;32;44904;-66
2022/08/10 00:29:00;;;;;;;;;;;;;;;24.10;35.84;100949.28;5418486;32;35370;-67
2022/08/10 00:32:02;;;;;;;;;;;;;;;23.66;36.81;100951.28;5435984;32;34673;-66
2022/08/10 00:35:04;;;;;;;;;;;;;;;24.09;35.93;100944.88;5421753;32;34658;-67
2022/08/10 00:38:06;;;;;;;;;;;;;;;23.72;36.78;100954.28;5434238;32;34936;-69
2022/08/10 00:41:08;;;;;;;;;;;;;;;23.85;36.61;100953.22;5431557;32;35147;-68
2022/08/10 00:44:10;;;;;;;;;;;;;;;23.83;36.63;100949.81;5431449;32;34749;-67
2022/08/10 00:47:12;;;;;;;;;;;;;;;23.88;36.73;100943.06;5437298;32;34788;-70
2022/08/10 00:50:34;;;;;;;;;;;;;;;24.16;36.06;100954.97;5421041;32;44961;-69
2022/08/10 00:53:36;;;;;;;;;;;;;;;24.14;36.05;100951.53;5437856;32;34548;-69
2022/08/10 00:56:38;;;;;;;;;;;;;;;24.08;36.18;100953.91;5427120;32;35434;-68
2022/08/10 01:00:00;;;;;;;;;;;;;;;23.47;37.39;100957.31;5414254;32;45009;-69
2022/08/10 01:03:02;;;;;;;;;;;;;;;23.72;36.94;100956.97;5448111;32;33291;-70
2022/08/10 01:06:15;;;;;;;;;;;;;;;23.37;37.50;100954.53;5415628;32;34564;-69
2022/08/10 01:09:20;;;;;;;;;;;;;;;23.31;37.79;100952.37;5434090;32;34567;-69
2022/08/10 01:12:35;;;;;;;;;;;;;;;23.54;37.29;100954.97;5401399;32;35023;-68
2022/08/10 01:15:47;;;;;;;;;;;;;;;23.26;37.76;100951.06;5408585;32;35308;-69
2022/08/10 01:19:07;;;;;;;;;;;;;;;23.59;37.36;100953.59;5425544;32;36577;-69
2022/08/10 01:22:29;;;;;;;;;;;;;;;23.12;38.28;100957.56;5425282;32;34274;-68
2022/08/10 01:25:50;;;;;;;;;;;;;;;23.07;38.53;100946.38;5427790;32;44962;-67
2022/08/10 01:29:31;;;;;;;;;;;;;;;23.55;37.65;100952.13;5433243;32;34577;-67
2022/08/10 01:32:51;;;;;;;;;;;;;;;23.36;38.12;100951.97;5430959;32;45019;-69
2022/08/10 01:35:58;;;;;;;;;;;;;;;23.20;38.25;100942.56;5441787;32;34855;-69
2022/08/10 01:39:01;;;;;;;;;;;;;;;23.16;38.56;100957.19;5418662;32;45586;-66
2022/08/10 01:42:04;;;;;;;;;;;;;;;23.14;38.76;100956.47;5415626;32;34307;-68
2022/08/10 01:45:06;;;;;;;;;;;;;;;22.37;40.33;100960.94;5441805;32;34852;-67
2022/08/10 01:48:27;;;;;;;;;;;;;;;22.71;39.92;100967.97;5429643;32;35753;-66
2022/08/10 01:51:34;;;;;;;;;;;;;;;22.80;39.85;100960.16;5438940;32;45208;-69
2022/08/10 01:54:36;;;;;;;;;;;;;;;23.59;38.17;100960.78;5420824;32;35096;-68
2022/08/10 01:57:38;;;;;;;;;;;;;;;23.66;37.89;100962.84;5429487;32;34713;-67
2022/08/10 02:00:40;;;;;;;;;;;;;;;22.79;39.79;100964.66;5436360;32;35286;-66
2022/08/10 02:03:43;;;;;;;;;;;;;;;22.85;39.76;100957.97;5428339;32;34285;-66
2022/08/10 02:07:05;;;;;;;;;;;;;;;22.49;40.72;100961.81;5445842;32;44896;-66
2022/08/10 02:10:09;;;;;;;;;;;;;;;22.59;40.49;100958.25;5419442;32;35157;-66
2022/08/10 02:13:10;;;;;;;;;;;;;;;22.91;39.85;100952.97;5437853;32;34908;-67
2022/08/10 02:16:12;;;;;;;;;;;;;;;22.65;40.50;100957.75;5402782;32;35588;-67
2022/08/10 02:19:15;;;;;;;;;;;;;;;22.94;40.36;100955.44;5413852;32;35250;-69
2022/08/10 02:22:18;;;;;;;;;;;;;;;22.25;41.82;100948.53;5448579;32;34589;-69
2022/08/10 02:25:39;;;;;;;;;;;;;;;22.61;41.37;100956.31;5419195;32;34883;-69
2022/08/10 02:28:44;;;;;;;;;;;;;;;21.56;43.51;100968.06;5445501;32;34960;-67
2022/08/10 02:31:46;;;;;;;;;;;;;;;22.11;42.42;100965.69;5431255;32;34923;-68
2022/08/10 02:34:52;;;;;;;;;;;;;;;22.17;42.93;100968.72;5424308;32;33903;-67
2022/08/10 02:37:54;;;;;;;;;;;;;;;22.25;42.81;100967.28;5433417;32;35290;-67
2022/08/10 02:40:57;;;;;;;;;;;;;;;21.95;43.50;100967.81;5415486;32;34484;-66
2022/08/10 02:44:44;;;;;;;;;;;;;;;22.41;42.43;100965.94;5435645;32;35534;-67
2022/08/10 02:48:33;;;;;;;;;;;;;;;22.19;42.82;100965.94;5418018;32;35920;-67
2022/08/10 02:51:38;;;;;;;;;;;;;;;22.86;41.51;100967.69;5420498;32;44914;-65
2022/08/10 02:55:12;;;;;;;;;;;;;;;22.65;42.01;100979.19;5436199;32;44995;-66
2022/08/10 02:58:21;;;;;;;;;;;;;;;22.05;43.27;100975.00;5422464;32;34116;-67
2022/08/10 03:01:30;;;;;;;;;;;;;;;22.38;42.97;100971.53;5423328;32;34482;-67
2022/08/10 03:04:33;;;;;;;;;;;;;;;22.71;42.01;100977.84;5442258;32;46924;-69
2022/08/10 03:08:03;;;;;;;;;;;;;;;22.06;42.96;100959.81;5422767;32;35589;-68
2022/08/10 03:11:05;;;;;;;;;;;;;;;22.56;42.38;100974.56;5443703;32;44945;-66
2022/08/10 03:14:07;;;;;;;;;;;;;;;22.95;41.39;100980.41;5423375;32;35022;-65
2022/08/10 03:17:09;;;;;;;;;;;;;;;22.05;43.30;100985.72;5409679;32;34776;-65
2022/08/10 03:20:11;;;;;;;;;;;;;;;21.72;43.78;100991.00;5431322;32;34840;-67
2022/08/10 03:23:33;;;;;;;;;;;;;;;22.02;43.61;100985.94;5425928;32;44972;-68
2022/08/10 03:26:35;;;;;;;;;;;;;;;21.78;44.14;100998.56;5438008;32;34657;-66
2022/08/10 03:29:37;;;;;;;;;;;;;;;21.98;43.57;101003.22;5417165;32;34297;-69
2022/08/10 03:32:59;;;;;;;;;;;;;;;22.32;42.77;100998.78;5439245;32;48499;-68
2022/08/10 03:36:01;;;;;;;;;;;;;;;22.22;43.00;101003.19;5427452;32;35415;-66
2022/08/10 03:39:23;;;;;;;;;;;;;;;21.77;43.98;101011.09;5418178;32;35126;-66
2022/08/10 03:42:25;;;;;;;;;;;;;;;22.14;43.15;101001.09;5428037;32;35007;-65
2022/08/10 03:45:29;;;;;;;;;;;;;;;22.44;42.45;101005.00;5421288;32;34542;-66
2022/08/10 03:48:52;;;;;;;;;;;;;;;22.40;42.54;101000.88;5411024;32;34348;-65
2022/08/10 03:51:54;;;;;;;;;;;;;;;21.31;45.08;101011.84;5435278;32;34257;-68
2022/08/10 03:54:57;;;;;;;;;;;;;;;22.28;42.92;101007.19;5425372;32;34538;-68
2022/08/10 03:57:59;;;;;;;;;;;;;;;22.02;43.27;101006.50;5435559;32;43834;-64
2022/08/10 04:01:01;;;;;;;;;;;;;;;21.58;44.55;101019.66;5421191;32;34778;-66
2022/08/10 04:04:03;;;;;;;;;;;;;;;21.48;44.92;101023.97;5438885;32;34899;-66
2022/08/10 04:07:16;;;;;;;;;;;;;;;21.97;43.71;101030.97;5421167;32;34689;-69
2022/08/10 04:10:17;;;;;;;;;;;;;;;22.19;43.07;101019.47;5427603;32;34952;-67
2022/08/10 04:13:21;;;;;;;;;;;;;;;21.35;45.11;101026.69;5427892;32;35144;-67
2022/08/10 04:16:23;;;;;;;;;;;;;;;21.96;43.73;101031.94;5409448;32;34211;-68
2022/08/10 04:19:26;;;;;;;;;;;;;;;22.14;43.03;101025.19;5436016;32;35496;-67
2022/08/10 04:22:28;;;;;;;;;;;;;;;21.75;44.03;101031.72;5412550;32;34544;-68
2022/08/10 04:25:29;;;;;;;;;;;;;;;21.99;43.48;101009.44;5438662;32;35262;-68
2022/08/10 04:28:31;;;;;;;;;;;;;;;22.36;42.99;101028.88;5417155;32;34475;-67
2022/08/10 04:31:33;;;;;;;;;;;;;;;22.56;42.39;101020.13;5419018;32;35272;-68
2022/08/10 04:34:36;;;;;;;;;;;;;;;22.27;43.05;101021.53;5442553;32;34944;-69
2022/08/10 04:37:38;;;;;;;;;;;;;;;22.35;42.70;101016.47;5419300;32;34746;-65
2022/08/10 04:40:48;;;;;;;;;;;;;;;22.35;42.93;101021.81;5433134;32;34237;-66
2022/08/10 04:43:49;;;;;;;;;;;;;;;22.03;43.50;101019.78;5416317;32;34856;-69
2022/08/10 04:46:51;;;;;;;;;;;;;;;22.07;43.44;101018.56;5436969;32;34223;-65
2022/08/10 04:49:59;;;;;;;;;;;;;;;21.67;44.36;101028.78;5422188;32;44509;-67
2022/08/10 04:53:03;;;;;;;;;;;;;;;22.67;41.89;101019.28;5421787;32;34784;-67
2022/08/10 04:56:07;;;;;;;;;;;;;;;22.68;41.69;101021.81;5437421;32;34886;-68
2022/08/10 04:59:10;;;;;;;;;;;;;;;22.89;41.36;101030.00;5427068;32;34458;-66
2022/08/10 05:02:12;;;;;;;;;;;;;;;23.85;39.45;101028.38;5446217;32;34813;-66
2022/08/10 05:05:32;;;;;;;;;;;;;;;23.89;39.22;101024.44;5426881;32;47885;-65
2022/08/10 05:08:40;;;;;;;;;;;;;;;24.15;38.34;101032.97;5419132;32;34613;-66
2022/08/10 05:11:42;;;;;;;;;;;;;;;24.62;37.57;101031.56;5430025;32;35002;-68
2022/08/10 05:14:44;;;;;;;;;;;;;;;24.20;37.90;101028.88;5418933;32;34811;-67
2022/08/10 05:17:46;;;;;;;;;;;;;;;25.24;36.09;101022.41;5423953;32;35035;-66
2022/08/10 05:21:08;;;;;;;;;;;;;;;24.87;36.64;101030.25;5433967;32;35487;-67
2022/08/10 05:24:10;;;;;;;;;;;;;;;24.46;37.36;101028.50;5428611;32;34653;-68
2022/08/10 05:27:12;;;;;;;;;;;;;;;25.59;35.14;101037.19;5426518;32;35757;-67
2022/08/10 05:30:16;;;;;;;;;;;;;;;25.64;35.06;101021.47;5433657;32;34302;-67
2022/08/10 05:33:18;;;;;;;;;;;;;;;25.78;35.16;101029.13;5446525;32;34157;-67
2022/08/10 05:36:19;;;;;;;;;;;;;;;26.18;33.60;101037.00;5435230;32;34893;-67
2022/08/10 05:39:24;;;;;;;;;;;;;;;26.01;34.53;101024.28;5447436;32;34165;-69
2022/08/10 05:42:33;;;;;;;;;;;;;;;25.56;35.11;101024.00;5418189;32;44658;-69
2022/08/10 05:45:35;;;;;;;;;;;;;;;25.16;35.83;101024.09;5426757;32;34244;-79
2022/08/10 05:48:57;;;;;;;;;;;;;;;26.59;33.46;101017.91;5433124;32;35704;-74
2022/08/10 05:52:02;;;;;;;;;;;;;;;27.31;32.04;101014.41;5434120;32;35732;-72
2022/08/10 05:55:05;;;;;;;;;;;;;;;26.03;34.00;101027.69;5420916;32;35628;-74
2022/08/10 05:58:07;;;;;;;;;;;;;;;25.42;34.69;101019.87;5411604;32;34095;-80
2022/08/10 06:01:11;;;;;;;;;;;;;;;25.89;33.64;101029.00;5442621;32;35489;-74
2022/08/10 06:04:16;;;;;;;;;;;;;;;26.84;32.15;101022.59;5432975;32;34595;-73
2022/08/10 06:07:18;;;;;;;;;;;;;;;27.07;31.70;101009.59;5414046;32;34076;-82
2022/08/10 06:10:22;;;;;;;;;;;;;;;28.86;29.03;101004.72;5435694;32;34183;-70
2022/08/10 06:17:14;;;;;;;;;;;;;;;28.00;29.66;101023.63;5412143;32;34571;-70
2022/08/10 06:20:16;;;;;;;;;;;;;;;28.27;29.08;101010.00;5444645;32;34423;-70
2022/08/10 06:23:18;;;;;;;;;;;;;;;28.81;28.29;100993.53;5434379;32;32757;-69
2022/08/10 06:26:20;;;;;;;;;;;;;;;29.76;26.82;101013.06;5439831;32;35255;-69
2022/08/10 06:29:22;;;;;;;;;;;;;;;28.30;28.76;101011.53;5433947;32;35147;-74
2022/08/10 06:32:26;;;;;;;;;;;;;;;27.98;29.34;101015.69;5438412;32;34159;-83
2022/08/10 06:35:29;;;;;;;;;;;;;;;27.87;29.71;101015.09;5441404;32;44763;-86
2022/08/10 06:38:31;;;;;;;;;;;;;;;28.65;28.49;101004.28;5429837;32;32701;-79
2022/08/10 06:41:35;;;;;;;;;;;;;;;28.88;27.86;101006.25;5429211;32;34489;-70
2022/08/10 06:44:58;;;;;;;;;;;;;;;30.33;26.14;101005.69;5441744;32;34870;-70
2022/08/10 06:48:13;;;;;;;;;;;;;;;28.93;27.62;101011.22;5444502;32;45961;-74
2022/08/10 06:51:35;;;;;;;;;;;;;;;30.38;25.89;100999.75;5421432;32;35646;-69
2022/08/10 06:54:37;;;;;;;;;;;;;;;29.98;26.28;101011.50;5426093;32;45497;-64
2022/08/10 06:57:39;;;;;;;;;;;;;;;30.71;25.54;101009.50;5448054;32;34352;-68
2022/08/10 07:00:41;;;;;;;;;;;;;;;30.89;25.08;100994.84;5425306;32;34495;-65
2022/08/10 07:03:46;;;;;;;;;;;;;;;29.73;26.10;101006.09;5443656;32;35594;-69
2022/08/10 07:06:48;;;;;;;;;;;;;;;30.22;25.29;100994.41;5431797;32;34182;-72
2022/08/10 07:09:50;;;;;;;;;;;;;;;30.60;24.51;100998.19;5445187;32;34221;-74
2022/08/10 07:12:54;;;;;;;;;;;;;;;30.81;24.56;101003.03;5410883;32;35687;-72
2022/08/10 07:15:56;;;;;;;;;;;;;;;30.84;24.41;101002.66;5420588;32;33933;-71
2022/08/10 07:19:01;;;;;;;;;;;;;;;30.56;24.31;101002.25;5425535;32;44383;-73
2022/08/10 07:22:03;;;;;;;;;;;;;;;29.83;24.96;101005.94;5418963;32;34884;-75
2022/08/10 07:25:05;;;;;;;;;;;;;;;30.01;25.02;101003.88;5441390;32;34171;-69
2022/08/10 07:28:07;;;;;;;;;;;;;;;28.92;26.01;101000.53;5430567;32;33809;-70
2022/08/10 07:31:09;;;;;;;;;;;;;;;29.14;25.66;100997.22;5442380;32;34227;-70
2022/08/10 07:34:31;;;;;;;;;;;;;;;30.92;23.70;100980.94;5427685;32;45153;-69
2022/08/10 07:37:34;;;;;;;;;;;;;;;32.38;21.93;100983.50;5421428;32;34189;-83
2022/08/10 07:40:36;;;;;;;;;;;;;;;32.69;21.44;100986.84;5445850;32;34377;-78
2022/08/10 07:43:38;;;;;;;;;;;;;;;31.93;22.22;100988.00;5408482;32;35029;-72
2022/08/10 07:46:42;;;;;;;;;;;;;;;32.64;20.72;100991.16;5446795;32;34504;-73
2022/08/10 07:49:44;;;;;;;;;;;;;;;32.10;21.37;100992.25;5421619;32;35245;-73
2022/08/10 07:52:46;;;;;;;;;;;;;;;32.02;21.17;100990.47;5425485;32;35705;-78
2022/08/10 07:55:49;;;;;;;;;;;;;;;31.80;21.47;100992.19;5430170;32;35705;-80
2022/08/10 07:59:13;;;;;;;;;;;;;;;31.08;22.80;100986.25;5422395;32;36997;-74
2022/08/10 08:02:23;;;;;;;;;;;;;;;32.30;21.31;100968.91;5429930;32;35475;-73
2022/08/10 08:05:25;;;;;;;;;;;;;;;32.04;21.45;100988.41;5422823;32;33179;-72
2022/08/10 08:08:48;;;;;;;;;;;;;;;31.23;22.60;100991.75;5413927;32;34335;-73
2022/08/10 08:11:50;;;;;;;;;;;;;;;32.07;21.87;100985.34;5443416;32;34218;-72
2022/08/10 08:14:52;;;;;;;;;;;;;;;33.00;20.83;100983.91;5428312;32;34064;-77
2022/08/10 08:17:55;;;;;;;;;;;;;;;32.38;20.58;100991.66;5423360;32;34316;-80
2022/08/10 08:21:01;;;;;;;;;;;;;;;35.02;18.00;100979.56;5411569;32;46050;-77
2022/08/10 08:24:16;;;;;;;;;;;;;;;32.75;20.31;100980.63;5445282;32;32676;-79
2022/08/10 08:27:35;;;;;;;;;;;;;;;32.82;20.45;100984.28;5442730;32;44264;-72
2022/08/10 08:30:41;;;;;;;;;;;;;;;31.55;21.72;100985.25;5437391;32;35368;-70
2022/08/10 08:33:49;;;;;;;;;;;;;;;33.67;19.23;100975.34;5383847;32;32876;-66
2022/08/10 08:36:51;;;;;;;;;;;;;;;33.84;19.45;100980.53;5385311;32;35548;-70
2022/08/10 08:40:00;;;;;;;;;;;;;;;35.67;17.55;100971.69;5394786;32;45980;-68
2022/08/10 08:43:05;;;;;;;;;;;;;;;35.53;17.77;100963.47;5398447;32;35689;-75
2022/08/10 08:46:43;;;;;;;;;;;;;;;33.15;20.24;100978.41;5403025;32;34255;-74
2022/08/10 08:50:03;;;;;;;;;;;;;;;31.71;21.62;100974.25;5328549;32;34296;-70
2022/08/10 08:53:19;;;;;;;;;;;;;;;32.77;20.51;100964.94;5374904;32;34329;-70
2022/08/10 08:56:43;;;;;;;;;;;;;;;32.37;20.99;100966.31;5381323;32;34620;-86
2022/08/10 09:00:09;;;;;;;;;;;;;;;33.06;20.49;100965.97;5391488;32;35057;-78
2022/08/10 09:03:32;;;;;;;;;;;;;;;34.45;18.74;100958.94;5391735;32;35137;-69
2022/08/10 09:06:40;;;;;;;;;;;;;;;31.73;22.06;100968.63;5400256;32;46018;-72
2022/08/10 09:09:42;;;;;;;;;;;;;;;34.64;18.77;100968.25;5378645;32;35421;-77
2022/08/10 09:12:54;;;;;;;;;;;;;;;34.74;18.62;100949.63;5363399;32;990703;-82
2022/08/10 09:15:56;;;;;;;;;;;;;;;34.70;18.60;100959.25;5395267;32;36057;-73
2022/08/10 09:19:37;;;;;;;;;;;;;;;33.37;19.67;100952.88;5388126;32;45155;-77
2022/08/10 09:22:48;;;;;;;;;;;;;;;33.51;19.27;100950.28;5332115;32;35337;-70
2022/08/10 09:25:52;;;;;;;;;;;;;;;33.92;18.94;100947.69;5385041;32;34220;-70
2022/08/10 09:28:55;;;;;;;;;;;;;;;35.11;17.83;100945.56;5379230;32;34150;-80
2022/08/10 09:32:17;;;;;;;;;;;;;;;35.64;17.33;100944.78;5403127;32;36901;-72
2022/08/10 09:35:53;;;;;;;;;;;;;;;33.85;18.91;100954.94;5396394;32;34741;-66
2022/08/10 09:39:33;;;;;;;;;;;;;;;35.47;17.01;100939.72;5392946;32;34360;-72
2022/08/10 09:43:14;;;;;;;;;;;;;;;34.71;17.47;100929.03;5410408;32;34488;-73
2022/08/10 09:46:33;;;;;;;;;;;;;;;35.14;17.08;100928.75;5382140;32;33396;-68
2022/08/10 09:49:37;;;;;;;;;;;;;;;36.07;16.56;100940.56;5398463;32;44538;-74
2022/08/10 09:53:02;;;;;;;;;;;;;;;34.34;17.96;100930.34;5396968;32;44853;-75
2022/08/10 09:56:13;;;;;;;;;;;;;;;33.70;18.52;100943.31;5409280;32;38015;-73
2022/08/10 09:59:29;;;;;;;;;;;;;;;35.89;16.55;100925.84;5418035;32;34700;-74
2022/08/10 10:03:05;;;;;;;;;;;;;;;35.08;17.11;100928.72;5401191;32;35688;-75
2022/08/10 10:06:09;;;;;;;;;;;;;;;36.12;16.17;100915.25;5413991;32;46166;-74
2022/08/10 10:09:35;;;;;;;;;;;;;;;36.93;15.27;100916.66;5404608;32;33892;-77
2022/08/10 10:12:55;;;;;;;;;;;;;;;35.57;16.35;100916.62;5387352;32;44852;-74
2022/08/10 10:16:13;;;;;;;;;;;;;;;32.87;18.98;100926.59;5381801;32;46166;-70
2022/08/10 10:19:34;;;;;;;;;;;;;;;33.63;18.52;100913.28;5404385;32;34552;-67
2022/08/10 10:23:00;;;;;;;;;;;;;;;35.18;16.78;100907.31;5386806;32;34541;-74
2022/08/10 10:26:05;;;;;;;;;;;;;;;35.28;17.02;100902.28;5398670;32;45938;-73
2022/08/10 10:29:35;;;;;;;;;;;;;;;35.71;16.31;100899.97;5389155;32;35139;-87
2022/08/10 10:32:59;;;;;;;;;;;;;;;35.30;16.64;100892.00;5404302;32;35486;-69
2022/08/10 10:36:01;;;;;;;;;;;;;;;36.70;15.40;100889.78;5397596;32;44580;-75
2022/08/10 10:39:03;;;;;;;;;;;;;;;38.02;14.17;100891.50;5388416;32;34230;-71
2022/08/10 10:42:11;;;;;;;;;;;;;;;36.18;14.64;100880.72;5395995;32;34187;-69
2022/08/10 10:45:37;;;;;;;;;;;;;;;35.14;15.72;100885.03;5403130;32;44732;-70
2022/08/10 10:48:53;;;;;;;;;;;;;;;33.63;17.37;100870.53;5397045;32;33998;-69
2022/08/10 10:52:13;;;;;;;;;;;;;;;33.55;17.82;100889.72;5399824;32;34095;-70
2022/08/10 10:55:36;;;;;;;;;;;;;;;34.25;16.93;100873.41;5397798;32;35695;-66
2022/08/10 10:59:06;;;;;;;;;;;;;;;34.32;16.58;100880.56;5380282;32;34748;-75
2022/08/10 11:02:32;;;;;;;;;;;;;;;35.02;16.35;100881.25;5398610;32;45027;-69
2022/08/10 11:05:46;;;;;;;;;;;;;;;33.83;16.78;100865.19;5397266;32;34087;-74
2022/08/10 11:08:48;;;;;;;;;;;;;;;34.18;16.99;100857.00;5387913;32;34285;-69
2022/08/10 11:11:54;;;;;;;;;;;;;;;34.83;16.26;100865.62;5392705;32;36690;-73
2022/08/10 11:15:04;;;;;;;;;;;;;;;34.69;15.92;100870.22;5394306;32;43529;-72
2022/08/10 11:18:25;;;;;;;;;;;;;;;35.90;14.78;100854.50;5375901;32;34180;-70
2022/08/10 11:21:27;;;;;;;;;;;;;;;35.50;15.20;100851.84;5399115;32;34027;-68
2022/08/10 11:24:32;;;;;;;;;;;;;;;37.14;13.47;100854.09;5410872;32;46367;-72
2022/08/10 11:27:53;;;;;;;;;;;;;;;37.46;12.24;100834.03;5383207;32;34228;-77
2022/08/10 11:31:11;;;;;;;;;;;;;;;36.49;13.42;100848.00;5400397;32;35383;-64
2022/08/10 11:34:18;;;;;;;;;;;;;;;36.75;13.89;100854.37;5405181;32;34380;-66
2022/08/10 11:37:44;;;;;;;;;;;;;;;35.08;15.11;100849.53;5384049;32;34709;-65
2022/08/10 11:41:24;;;;;;;;;;;;;;;36.76;12.39;100850.56;5390734;32;45723;-67
2022/08/10 11:44:52;;;;;;;;;;;;;;;35.61;14.25;100847.63;5416105;32;34957;-68
2022/08/10 11:48:20;;;;;;;;;;;;;;;37.86;12.02;100835.31;5396139;32;36481;-73
2022/08/10 11:51:47;;;;;;;;;;;;;;;37.62;12.43;100830.72;5378716;32;36045;-82
2022/08/10 11:54:51;;;;;;;;;;;;;;;37.60;12.55;100847.37;5403016;32;34802;-75
2022/08/10 11:57:57;;;;;;;;;;;;;;;38.10;11.98;100836.28;5406486;32;35570;-74
2022/08/10 12:01:03;;;;;;;;;;;;;;;38.63;12.03;100841.06;5399173;32;44328;-78
2022/08/10 12:04:06;;;;;;;;;;;;;;;37.84;12.78;100836.63;5396505;32;35401;-75
2022/08/10 12:07:12;;;;;;;;;;;;;;;37.18;12.81;100843.53;5387990;32;35359;-79
2022/08/10 12:10:34;;;;;;;;;;;;;;;34.82;15.25;100836.66;5396578;32;45034;-76
2022/08/10 12:13:47;;;;;;;;;;;;;;;35.89;14.21;100838.31;5400695;32;35252;-88
2022/08/10 12:17:15;;;;;;;;;;;;;;;37.06;13.58;100835.22;5384215;32;33621;-71
2022/08/10 12:20:33;;;;;;;;;;;;;;;37.05;13.54;100830.78;5386623;32;35416;-65
2022/08/10 12:23:47;;;;;;;;;;;;;;;37.46;12.82;100823.91;5385976;32;45533;-64
2022/08/10 12:27:08;;;;;;;;;;;;;;;35.32;15.08;100829.75;5403927;32;43128;-69
2022/08/10 12:30:14;;;;;;;;;;;;;;;34.56;16.38;100838.28;5391651;32;34097;-73
2022/08/10 12:33:18;;;;;;;;;;;;;;;32.72;18.52;100830.47;5396961;32;34364;-75
2022/08/10 12:36:26;;;;;;;;;;;;;;;36.07;15.15;100820.19;5400881;32;35678;-68
2022/08/10 12:39:29;;;;;;;;;;;;;;;36.64;14.51;100819.47;5398534;32;43422;-66
2022/08/10 12:42:50;;;;;;;;;;;;;;;37.62;13.61;100817.84;5400104;32;35773;-73
2022/08/10 12:46:17;;;;;;;;;;;;;;;35.99;14.56;100823.13;5388596;32;36002;-77
2022/08/10 12:49:38;;;;;;;;;;;;;;;33.70;16.96;100807.03;5398264;32;34354;-73
2022/08/10 12:53:02;;;;;;;;;;;;;;;32.02;18.59;100823.81;5402172;32;36285;-76
2022/08/10 12:56:07;;;;;;;;;;;;;;;32.09;18.37;100808.41;5386629;32;35406;-74
2022/08/10 12:59:10;;;;;;;;;;;;;;;31.27;19.45;100806.59;5396135;32;34493;-70
2022/08/10 13:02:19;;;;;;;;;;;;;;;32.05;18.79;100801.66;5374846;32;35378;-72
2022/08/10 13:05:21;;;;;;;;;;;;;;;32.45;18.43;100796.72;5408842;32;35968;-71
2022/08/10 13:12:03;;;;;;;;;;;;;;;31.11;19.96;100800.44;5387367;32;34895;-75
2022/08/10 13:15:25;;;;;;;;;;;;;;;30.51;20.57;100803.94;5392149;32;34536;-72
2022/08/10 13:18:47;;;;;;;;;;;;;;;30.88;20.13;100808.62;5396136;32;36477;-67
2022/08/10 13:21:49;;;;;;;;;;;;;;;31.59;19.43;100801.84;5384059;32;35676;-74
2022/08/10 13:24:51;;;;;;;;;;;;;;;30.58;20.18;100804.91;5397752;32;34201;-73
2022/08/10 13:27:59;;;;;;;;;;;;;;;30.71;20.00;100800.59;5383062;32;35430;-75
2022/08/10 13:31:21;;;;;;;;;;;;;;;30.99;19.64;100789.19;5409224;32;34406;-73
2022/08/10 13:34:45;;;;;;;;;;;;;;;31.36;19.37;100771.19;5391414;32;34685;-76
2022/08/10 13:37:47;;;;;;;;;;;;;;;31.58;19.24;100788.47;5402084;32;35413;-80
2022/08/10 13:40:49;;;;;;;;;;;;;;;31.04;19.95;100780.47;5413868;32;34186;-73
2022/08/10 13:43:51;;;;;;;;;;;;;;;30.43;20.68;100791.28;5387557;32;34058;-78
2022/08/10 13:46:53;;;;;;;;;;;;;;;30.61;20.44;100785.56;5400654;32;34125;-74
2022/08/10 13:50:09;;;;;;;;;;;;;;;30.36;20.79;100780.31;5391815;32;33781;-70
2022/08/10 13:53:12;;;;;;;;;;;;;;;31.33;19.55;100763.44;5406453;32;32825;-78
2022/08/10 13:56:16;;;;;;;;;;;;;;;31.06;19.64;100771.16;5397125;32;34312;-75
2022/08/10 13:59:19;;;;;;;;;;;;;;;31.13;19.18;100763.94;5383409;32;33901;-75
2022/08/10 14:02:28;;;;;;;;;;;;;;;31.26;19.26;100766.91;5386683;32;35418;-80
2022/08/10 14:05:31;;;;;;;;;;;;;;;30.89;19.60;100759.59;5385844;32;43723;-80
2022/08/10 14:08:36;;;;;;;;;;;;;;;30.93;20.01;100765.50;5424231;32;35781;-78
2022/08/10 14:11:39;;;;;;;;;;;;;;;31.55;18.97;100757.06;5402008;32;34278;-74
2022/08/10 14:14:41;;;;;;;;;;;;;;;30.09;20.35;100759.94;5390002;32;35496;-76
2022/08/10 14:17:47;;;;;;;;;;;;;;;30.44;19.86;100757.72;5394238;32;34225;-76
2022/08/10 14:20:49;;;;;;;;;;;;;;;31.31;19.06;100746.50;5388243;32;34557;-70
2022/08/10 14:23:51;;;;;;;;;;;;;;;31.16;19.47;100755.44;5412816;32;35387;-76
2022/08/10 14:27:13;;;;;;;;;;;;;;;31.64;19.18;100741.53;5379039;32;34094;-72
2022/08/10 14:30:17;;;;;;;;;;;;;;;30.69;20.63;100748.41;5391986;32;34144;-78
2022/08/10 14:33:19;;;;;;;;;;;;;;;31.12;20.00;100748.69;5383441;32;33795;-81
2022/08/10 14:36:26;;;;;;;;;;;;;;;30.81;20.14;100743.38;5379421;32;33697;-69
2022/08/10 14:39:39;;;;;;;;;;;;;;;30.80;19.94;100743.59;5405162;32;44602;-79
2022/08/10 14:42:52;;;;;;;;;;;;;;;31.55;19.13;100735.34;5374273;32;35499;-68
2022/08/10 14:45:55;;;;;;;;;;;;;;;30.59;20.02;100736.06;5390835;32;32909;-79
2022/08/10 14:49:02;;;;;;;;;;;;;;;30.41;20.23;100742.66;5380591;32;44475;-69
2022/08/10 14:52:25;;;;;;;;;;;;;;;31.54;18.90;100736.38;5371494;32;34392;-80
2022/08/10 14:55:27;;;;;;;;;;;;;;;31.03;19.08;100738.94;5387635;32;37366;-68
2022/08/10 14:58:41;;;;;;;;;;;;;;;31.06;19.43;100729.59;5390161;32;34786;-80
2022/08/10 15:02:04;;;;;;;;;;;;;;;31.12;19.57;100732.41;5402388;32;45026;-79
2022/08/10 15:05:26;;;;;;;;;;;;;;;30.59;19.97;100730.66;5410956;32;35856;-70
2022/08/10 15:08:45;;;;;;;;;;;;;;;30.25;20.21;100723.78;5381456;32;35436;-69
2022/08/10 15:11:50;;;;;;;;;;;;;;;30.17;20.47;100727.41;5417731;32;37558;-68
2022/08/10 15:15:12;;;;;;;;;;;;;;;30.24;20.64;100726.69;5384914;32;36251;-78
2022/08/10 15:18:21;;;;;;;;;;;;;;;30.58;20.55;100721.66;5372327;32;35123;-79
2022/08/10 15:21:28;;;;;;;;;;;;;;;30.52;20.25;100725.09;5400648;32;34469;-79
2022/08/10 15:28:06;;;;;;;;;;;;;;;30.22;20.48;100724.16;5411362;32;44762;-80
2022/08/10 15:31:08;;;;;;;;;;;;;;;30.31;20.29;100727.66;5400135;32;36115;-68
2022/08/10 15:37:31;;;;;;;;;;;;;;;31.40;19.07;100718.22;5400948;32;44781;-77
2022/08/10 15:40:53;;;;;;;;;;;;;;;31.33;19.12;100718.13;5398279;32;36526;-68
2022/08/10 15:43:56;;;;;;;;;;;;;;;30.23;20.42;100722.28;5420013;32;34788;-68
2022/08/10 15:47:01;;;;;;;;;;;;;;;30.65;20.17;100719.06;5377774;32;45109;-67
2022/08/10 15:50:08;;;;;;;;;;;;;;;30.86;19.89;100718.44;5380682;32;34766;-78
2022/08/10 15:53:12;;;;;;;;;;;;;;;29.68;21.12;100716.78;5404522;32;35472;-68
2022/08/10 15:56:28;;;;;;;;;;;;;;;30.24;20.17;100710.41;5397085;32;34511;-80
2022/08/10 15:59:39;;;;;;;;;;;;;;;30.14;20.23;100722.34;5401442;32;44436;-80
2022/08/10 16:02:51;;;;;;;;;;;;;;;29.77;20.66;100714.06;5384270;32;34268;-82
2022/08/10 16:05:53;;;;;;;;;;;;;;;30.07;20.54;100725.91;5374987;32;34191;-68
2022/08/10 16:09:13;;;;;;;;;;;;;;;30.36;20.35;100717.09;5391497;32;44492;-67
2022/08/10 16:12:38;;;;;;;;;;;;;;;30.45;20.57;100716.00;5399686;32;44875;-69
2022/08/10 16:15:40;;;;;;;;;;;;;;;31.13;19.71;100712.38;5390861;32;35921;-76
2022/08/10 16:18:42;;;;;;;;;;;;;;;31.02;19.89;100718.25;5379459;32;35244;-68
2022/08/10 16:21:45;;;;;;;;;;;;;;;30.65;20.33;100713.62;5385512;32;34298;-77
2022/08/10 16:24:47;;;;;;;;;;;;;;;30.43;20.64;100721.63;5388503;32;35424;-67
2022/08/10 16:27:49;;;;;;;;;;;;;;;30.30;20.91;100726.81;5400586;32;35968;-80